sensor_id;sensor_type;location;lat;lon;timestamp;pressure;altitude;pressure_sealevel;temperature;humidity
41862;BME280;27537;57.134;-2.136;2023-06-10T00:02:01;101383.38;;;11.46;100.00
41862;BME280;27537;57.134;-2.136;2023-06-10T00:04:30;101369.53;;;11.41;100.00
41862;BME280;27537;57.134;-2.136;2023-06-10T00:06:57;101377.97;;;11.51;100.00
41862;BME280;27537;57.134;-2.136;2023-06-10T00:09:23;101379.25;;;11.37;100.00
41862;BME280;27537;57.134;-2.136;2023-06-10T00:11:50;101371.06;;;11.48;100.00
41862;BME280;27537;57.134;-2.136;2023-06-10T00:14:17;101375.78;;;11.37;100.00
41862;BME280;27537;57.134;-2.136;2023-06-10T00:16:44;101378.25;;;11.42;100.00
41862;BME280;27537;57.134;-2.136;2023-06-10T00:19:11;101369.66;;;11.36;100.00
41862;BME280;27537;57.134;-2.136;2023-06-10T00:21:40;101383.19;;;11.51;100.00
41862;BME280;27537;57.134;-2.136;2023-06-10T00:24:08;101378.41;;;11.37;100.00
41862;BME280;27537;57.134;-2.136;2023-06-10T00:26:41;101383.25;;;11.21;100.00
41862;BME280;27537;57.134;-2.136;2023-06-10T00:29:08;101388.84;;;11.38;100.00
41862;BME280;27537;57.134;-2.136;2023-06-10T00:31:35;101388.34;;;11.26;100.00
41862;BME280;27537;57.134;-2.136;2023-06-10T00:34:02;101370.22;;;11.18;100.00
41862;BME280;27537;57.134;-2.136;2023-06-10T00:36:29;101374.72;;;11.14;100.00
41862;BME280;27537;57.134;-2.136;2023-06-10T00:38:56;101383.91;;;11.28;100.00
41862;BME280;27537;57.134;-2.136;2023-06-10T00:41:24;101374.84;;;11.10;100.00
41862;BME280;27537;57.134;-2.136;2023-06-10T00:43:52;101361.25;;;10.97;100.00
41862;BME280;27537;57.134;-2.136;2023-06-10T00:46:21;101374.03;;;11.08;100.00
41862;BME280;27537;57.134;-2.136;2023-06-10T00:48:48;101377.72;;;11.00;100.00
41862;BME280;27537;57.134;-2.136;2023-06-10T00:51:16;101371.56;;;11.03;100.00
41862;BME280;27537;57.134;-2.136;2023-06-10T00:53:44;101382.34;;;11.22;100.00
41862;BME280;27537;57.134;-2.136;2023-06-10T00:56:13;101362.38;;;11.18;100.00
41862;BME280;27537;57.134;-2.136;2023-06-10T00:58:40;101365.66;;;11.25;100.00
41862;BME280;27537;57.134;-2.136;2023-06-10T01:01:06;101363.78;;;11.30;100.00
41862;BME280;27537;57.134;-2.136;2023-06-10T01:03:33;101356.94;;;11.24;100.00
41862;BME280;27537;57.134;-2.136;2023-06-10T01:06:16;101367.66;;;11.45;100.00
41862;BME280;27537;57.134;-2.136;2023-06-10T01:12:12;101356.50;;;11.38;100.00
41862;BME280;27537;57.134;-2.136;2023-06-10T01:14:43;101345.97;;;11.39;100.00
41862;BME280;27537;57.134;-2.136;2023-06-10T01:17:11;101333.97;;;11.32;100.00
41862;BME280;27537;57.134;-2.136;2023-06-10T01:19:38;101358.16;;;11.42;100.00
41862;BME280;27537;57.134;-2.136;2023-06-10T01:22:04;101367.38;;;11.54;100.00
41862;BME280;27537;57.134;-2.136;2023-06-10T01:24:32;101369.69;;;11.35;100.00
41862;BME280;27537;57.134;-2.136;2023-06-10T01:27:05;101351.56;;;11.29;100.00
41862;BME280;27537;57.134;-2.136;2023-06-10T01:30:08;101358.78;;;11.49;100.00
41862;BME280;27537;57.134;-2.136;2023-06-10T01:32:40;101354.34;;;11.51;100.00
41862;BME280;27537;57.134;-2.136;2023-06-10T01:35:10;101358.91;;;11.46;100.00
41862;BME280;27537;57.134;-2.136;2023-06-10T01:37:39;101360.66;;;11.45;100.00
41862;BME280;27537;57.134;-2.136;2023-06-10T01:40:07;101358.53;;;11.58;100.00
41862;BME280;27537;57.134;-2.136;2023-06-10T01:42:34;101331.41;;;11.57;100.00
41862;BME280;27537;57.134;-2.136;2023-06-10T01:45:01;101349.66;;;11.62;100.00
41862;BME280;27537;57.134;-2.136;2023-06-10T01:47:29;101363.81;;;11.56;100.00
41862;BME280;27537;57.134;-2.136;2023-06-10T01:49:55;101344.31;;;11.37;100.00
41862;BME280;27537;57.134;-2.136;2023-06-10T01:52:22;101349.66;;;11.62;100.00
41862;BME280;27537;57.134;-2.136;2023-06-10T01:54:49;101363.00;;;11.54;100.00
41862;BME280;27537;57.134;-2.136;2023-06-10T01:57:16;101360.38;;;11.54;100.00
41862;BME280;27537;57.134;-2.136;2023-06-10T01:59:42;101360.44;;;11.53;100.00
41862;BME280;27537;57.134;-2.136;2023-06-10T02:02:10;101361.03;;;11.61;100.00
41862;BME280;27537;57.134;-2.136;2023-06-10T02:04:37;101360.81;;;11.69;100.00
41862;BME280;27537;57.134;-2.136;2023-06-10T02:07:04;101344.50;;;11.59;100.00
41862;BME280;27537;57.134;-2.136;2023-06-10T02:09:32;101363.25;;;11.73;100.00
41862;BME280;27537;57.134;-2.136;2023-06-10T02:12:05;101336.03;;;11.77;100.00
41862;BME280;27537;57.134;-2.136;2023-06-10T02:14:33;101359.69;;;11.76;100.00
41862;BME280;27537;57.134;-2.136;2023-06-10T02:17:00;101354.88;;;11.90;100.00
41862;BME280;27537;57.134;-2.136;2023-06-10T02:19:27;101355.56;;;11.69;100.00
41862;BME280;27537;57.134;-2.136;2023-06-10T02:21:54;101346.56;;;11.76;100.00
41862;BME280;27537;57.134;-2.136;2023-06-10T02:24:21;101364.00;;;11.77;100.00
41862;BME280;27537;57.134;-2.136;2023-06-10T02:26:48;101350.81;;;11.80;100.00
41862;BME280;27537;57.134;-2.136;2023-06-10T02:29:15;101349.34;;;11.71;100.00
41862;BME280;27537;57.134;-2.136;2023-06-10T02:31:42;101357.13;;;11.74;100.00
41862;BME280;27537;57.134;-2.136;2023-06-10T02:34:09;101356.94;;;11.79;100.00
41862;BME280;27537;57.134;-2.136;2023-06-10T02:36:35;101354.03;;;11.88;100.00
41862;BME280;27537;57.134;-2.136;2023-06-10T02:39:03;101345.41;;;11.85;100.00
41862;BME280;27537;57.134;-2.136;2023-06-10T02:41:31;101361.78;;;11.93;100.00
41862;BME280;27537;57.134;-2.136;2023-06-10T02:43:58;101360.84;;;11.95;100.00
41862;BME280;27537;57.134;-2.136;2023-06-10T02:46:24;101360.22;;;11.86;100.00
41862;BME280;27537;57.134;-2.136;2023-06-10T02:48:51;101359.28;;;11.88;100.00
41862;BME280;27537;57.134;-2.136;2023-06-10T02:51:18;101352.31;;;11.87;100.00
41862;BME280;27537;57.134;-2.136;2023-06-10T02:53:45;101339.13;;;11.90;100.00
41862;BME280;27537;57.134;-2.136;2023-06-10T02:56:13;101359.25;;;11.90;100.00
41862;BME280;27537;57.134;-2.136;2023-06-10T02:58:40;101347.44;;;11.76;100.00
41862;BME280;27537;57.134;-2.136;2023-06-10T03:01:06;101350.00;;;11.78;100.00
41862;BME280;27537;57.134;-2.136;2023-06-10T03:03:33;101357.13;;;12.01;100.00
41862;BME280;27537;57.134;-2.136;2023-06-10T03:06:00;101356.91;;;12.07;100.00
41862;BME280;27537;57.134;-2.136;2023-06-10T03:08:28;101354.56;;;12.00;100.00
41862;BME280;27537;57.134;-2.136;2023-06-10T03:10:55;101355.97;;;11.83;100.00
41862;BME280;27537;57.134;-2.136;2023-06-10T03:13:21;101350.47;;;11.91;100.00
41862;BME280;27537;57.134;-2.136;2023-06-10T03:15:48;101356.38;;;11.98;100.00
41862;BME280;27537;57.134;-2.136;2023-06-10T03:18:15;101348.47;;;11.99;100.00
41862;BME280;27537;57.134;-2.136;2023-06-10T03:20:42;101349.97;;;12.06;100.00
41862;BME280;27537;57.134;-2.136;2023-06-10T03:23:11;101330.44;;;11.88;100.00
41862;BME280;27537;57.134;-2.136;2023-06-10T03:25:38;101338.81;;;12.00;100.00
41862;BME280;27537;57.134;-2.136;2023-06-10T03:28:04;101338.63;;;12.06;100.00
41862;BME280;27537;57.134;-2.136;2023-06-10T03:30:31;101340.22;;;12.10;100.00
41862;BME280;27537;57.134;-2.136;2023-06-10T03:32:58;101321.47;;;11.95;100.00
41862;BME280;27537;57.134;-2.136;2023-06-10T03:35:26;101317.91;;;11.96;100.00
41862;BME280;27537;57.134;-2.136;2023-06-10T03:37:53;101336.75;;;12.09;100.00
41862;BME280;27537;57.134;-2.136;2023-06-10T03:40:20;101334.00;;;11.86;100.00
41862;BME280;27537;57.134;-2.136;2023-06-10T03:42:46;101332.06;;;11.92;100.00
41862;BME280;27537;57.134;-2.136;2023-06-10T03:45:13;101327.34;;;11.75;100.00
41862;BME280;27537;57.134;-2.136;2023-06-10T03:47:40;101334.03;;;11.84;100.00
41862;BME280;27537;57.134;-2.136;2023-06-10T03:50:07;101333.78;;;11.93;100.00
41862;BME280;27537;57.134;-2.136;2023-06-10T03:52:35;101334.59;;;11.95;100.00
41862;BME280;27537;57.134;-2.136;2023-06-10T03:55:03;101338.78;;;12.01;100.00
41862;BME280;27537;57.134;-2.136;2023-06-10T03:57:30;101329.03;;;12.05;100.00
41862;BME280;27537;57.134;-2.136;2023-06-10T03:59:56;101334.31;;;12.03;100.00
41862;BME280;27537;57.134;-2.136;2023-06-10T04:02:23;101335.69;;;12.15;100.00
41862;BME280;27537;57.134;-2.136;2023-06-10T04:04:50;101318.25;;;12.12;100.00
41862;BME280;27537;57.134;-2.136;2023-06-10T04:07:17;101337.66;;;12.08;100.00
41862;BME280;27537;57.134;-2.136;2023-06-10T04:09:46;101327.34;;;12.02;100.00
41862;BME280;27537;57.134;-2.136;2023-06-10T04:12:13;101279.81;;;11.85;100.00
41862;BME280;27537;57.134;-2.136;2023-06-10T04:14:41;101319.41;;;12.04;100.00
41862;BME280;27537;57.134;-2.136;2023-06-10T04:17:08;101331.66;;;12.30;100.00
41862;BME280;27537;57.134;-2.136;2023-06-10T04:19:35;101322.13;;;12.27;100.00
41862;BME280;27537;57.134;-2.136;2023-06-10T04:22:02;101316.22;;;12.21;100.00
41862;BME280;27537;57.134;-2.136;2023-06-10T04:24:30;101318.69;;;12.25;100.00
41862;BME280;27537;57.134;-2.136;2023-06-10T04:26:56;101322.19;;;12.26;100.00
41862;BME280;27537;57.134;-2.136;2023-06-10T04:29:23;101321.56;;;12.18;100.00
41862;BME280;27537;57.134;-2.136;2023-06-10T04:31:50;101321.94;;;12.32;100.00
41862;BME280;27537;57.134;-2.136;2023-06-10T04:34:17;101313.75;;;12.16;100.00
41862;BME280;27537;57.134;-2.136;2023-06-10T04:36:44;101328.97;;;12.31;100.00
41862;BME280;27537;57.134;-2.136;2023-06-10T04:39:10;101320.75;;;12.41;100.00
41862;BME280;27537;57.134;-2.136;2023-06-10T04:41:37;101326.13;;;12.38;100.00
41862;BME280;27537;57.134;-2.136;2023-06-10T04:44:04;101302.19;;;12.22;100.00
41862;BME280;27537;57.134;-2.136;2023-06-10T04:46:31;101316.00;;;12.27;100.00
41862;BME280;27537;57.134;-2.136;2023-06-10T04:48:58;101327.78;;;12.40;100.00
41862;BME280;27537;57.134;-2.136;2023-06-10T04:51:25;101326.66;;;12.47;100.00
41862;BME280;27537;57.134;-2.136;2023-06-10T04:53:52;101307.69;;;12.39;100.00
41862;BME280;27537;57.134;-2.136;2023-06-10T04:56:19;101326.38;;;12.55;100.00
41862;BME280;27537;57.134;-2.136;2023-06-10T04:58:46;101315.91;;;12.53;100.00
41862;BME280;27537;57.134;-2.136;2023-06-10T05:01:13;101334.19;;;12.57;100.00
41862;BME280;27537;57.134;-2.136;2023-06-10T05:03:40;101321.34;;;12.72;100.00
41862;BME280;27537;57.134;-2.136;2023-06-10T05:06:07;101322.16;;;12.75;100.00
41862;BME280;27537;57.134;-2.136;2023-06-10T05:08:33;101330.84;;;12.77;100.00
41862;BME280;27537;57.134;-2.136;2023-06-10T05:11:00;101295.59;;;12.59;100.00
41862;BME280;27537;57.134;-2.136;2023-06-10T05:13:27;101322.88;;;12.78;100.00
41862;BME280;27537;57.134;-2.136;2023-06-10T05:15:54;101317.53;;;12.81;100.00
41862;BME280;27537;57.134;-2.136;2023-06-10T05:18:20;101325.31;;;12.84;100.00
41862;BME280;27537;57.134;-2.136;2023-06-10T05:20:47;101316.66;;;13.04;100.00
41862;BME280;27537;57.134;-2.136;2023-06-10T05:23:14;101309.16;;;13.61;100.00
41862;BME280;27537;57.134;-2.136;2023-06-10T05:25:41;101320.22;;;13.70;100.00
41862;BME280;27537;57.134;-2.136;2023-06-10T05:28:09;101320.13;;;14.14;100.00
41862;BME280;27537;57.134;-2.136;2023-06-10T05:30:39;101313.00;;;14.55;100.00
41862;BME280;27537;57.134;-2.136;2023-06-10T05:33:06;101319.22;;;14.54;100.00
41862;BME280;27537;57.134;-2.136;2023-06-10T05:35:33;101317.88;;;14.25;100.00
41862;BME280;27537;57.134;-2.136;2023-06-10T05:38:00;101312.28;;;14.33;100.00
41862;BME280;27537;57.134;-2.136;2023-06-10T05:40:29;101318.47;;;14.32;100.00
41862;BME280;27537;57.134;-2.136;2023-06-10T05:42:56;101320.72;;;14.20;100.00
41862;BME280;27537;57.134;-2.136;2023-06-10T05:45:22;101322.03;;;13.90;100.00
41862;BME280;27537;57.134;-2.136;2023-06-10T05:47:49;101316.75;;;13.90;100.00
41862;BME280;27537;57.134;-2.136;2023-06-10T05:50:16;101318.28;;;14.36;100.00
41862;BME280;27537;57.134;-2.136;2023-06-10T05:52:43;101305.75;;;15.00;100.00
41862;BME280;27537;57.134;-2.136;2023-06-10T05:55:09;101307.88;;;14.92;100.00
41862;BME280;27537;57.134;-2.136;2023-06-10T05:57:37;101315.84;;;15.28;100.00
41862;BME280;27537;57.134;-2.136;2023-06-10T06:00:04;101311.66;;;15.05;100.00
41862;BME280;27537;57.134;-2.136;2023-06-10T06:02:31;101319.13;;;14.76;100.00
41862;BME280;27537;57.134;-2.136;2023-06-10T06:04:58;101316.63;;;15.11;100.00
41862;BME280;27537;57.134;-2.136;2023-06-10T06:07:25;101324.09;;;15.76;100.00
41862;BME280;27537;57.134;-2.136;2023-06-10T06:09:51;101321.00;;;15.85;100.00
41862;BME280;27537;57.134;-2.136;2023-06-10T06:12:18;101327.19;;;16.19;100.00
41862;BME280;27537;57.134;-2.136;2023-06-10T06:14:45;101328.13;;;16.51;100.00
41862;BME280;27537;57.134;-2.136;2023-06-10T06:17:11;101320.94;;;16.38;100.00
41862;BME280;27537;57.134;-2.136;2023-06-10T06:19:39;101329.13;;;16.33;100.00
41862;BME280;27537;57.134;-2.136;2023-06-10T06:22:05;101329.47;;;16.43;100.00
41862;BME280;27537;57.134;-2.136;2023-06-10T06:24:32;101318.09;;;16.25;100.00
41862;BME280;27537;57.134;-2.136;2023-06-10T06:26:59;101324.38;;;16.40;100.00
41862;BME280;27537;57.134;-2.136;2023-06-10T06:29:26;101329.59;;;17.06;100.00
41862;BME280;27537;57.134;-2.136;2023-06-10T06:31:53;101331.66;;;17.17;100.00
41862;BME280;27537;57.134;-2.136;2023-06-10T06:34:20;101325.22;;;16.40;100.00
41862;BME280;27537;57.134;-2.136;2023-06-10T06:36:46;101333.06;;;16.42;100.00
41862;BME280;27537;57.134;-2.136;2023-06-10T06:39:13;101333.72;;;16.63;100.00
41862;BME280;27537;57.134;-2.136;2023-06-10T06:41:40;101333.91;;;17.25;100.00
41862;BME280;27537;57.134;-2.136;2023-06-10T06:44:06;101345.47;;;17.84;100.00
41862;BME280;27537;57.134;-2.136;2023-06-10T06:46:33;101324.91;;;16.62;100.00
41862;BME280;27537;57.134;-2.136;2023-06-10T06:49:00;101328.56;;;16.44;100.00
41862;BME280;27537;57.134;-2.136;2023-06-10T06:51:27;101336.69;;;16.57;100.00
41862;BME280;27537;57.134;-2.136;2023-06-10T06:53:53;101349.19;;;16.20;100.00
41862;BME280;27537;57.134;-2.136;2023-06-10T06:56:23;101342.22;;;16.01;100.00
41862;BME280;27537;57.134;-2.136;2023-06-10T06:58:50;101338.34;;;15.72;100.00
41862;BME280;27537;57.134;-2.136;2023-06-10T07:01:16;101343.53;;;16.10;100.00
41862;BME280;27537;57.134;-2.136;2023-06-10T07:03:43;101347.78;;;16.12;100.00
41862;BME280;27537;57.134;-2.136;2023-06-10T07:06:12;101339.06;;;16.45;100.00
41862;BME280;27537;57.134;-2.136;2023-06-10T07:08:39;101337.34;;;16.27;100.00
41862;BME280;27537;57.134;-2.136;2023-06-10T07:11:06;101348.59;;;16.48;100.00
41862;BME280;27537;57.134;-2.136;2023-06-10T07:13:33;101335.41;;;17.29;100.00
41862;BME280;27537;57.134;-2.136;2023-06-10T07:15:59;101333.56;;;17.61;100.00
41862;BME280;27537;57.134;-2.136;2023-06-10T07:18:26;101335.56;;;17.42;100.00
41862;BME280;27537;57.134;-2.136;2023-06-10T07:20:53;101334.03;;;16.90;100.00
41862;BME280;27537;57.134;-2.136;2023-06-10T07:23:20;101339.22;;;17.71;100.00
41862;BME280;27537;57.134;-2.136;2023-06-10T07:25:47;101333.13;;;18.15;100.00
41862;BME280;27537;57.134;-2.136;2023-06-10T07:28:13;101324.66;;;18.09;100.00
41862;BME280;27537;57.134;-2.136;2023-06-10T07:30:40;101327.94;;;17.68;100.00
41862;BME280;27537;57.134;-2.136;2023-06-10T07:33:07;101326.94;;;17.54;100.00
41862;BME280;27537;57.134;-2.136;2023-06-10T07:35:34;101332.69;;;17.77;100.00
41862;BME280;27537;57.134;-2.136;2023-06-10T07:38:01;101319.44;;;17.77;100.00
41862;BME280;27537;57.134;-2.136;2023-06-10T07:40:27;101313.38;;;17.91;100.00
41862;BME280;27537;57.134;-2.136;2023-06-10T07:42:55;101331.09;;;18.05;100.00
41862;BME280;27537;57.134;-2.136;2023-06-10T07:45:21;101322.41;;;18.02;100.00
41862;BME280;27537;57.134;-2.136;2023-06-10T07:47:48;101337.72;;;17.81;100.00
41862;BME280;27537;57.134;-2.136;2023-06-10T07:50:15;101332.75;;;17.45;100.00
41862;BME280;27537;57.134;-2.136;2023-06-10T07:52:42;101318.84;;;17.41;100.00
41862;BME280;27537;57.134;-2.136;2023-06-10T07:55:08;101322.13;;;17.61;100.00
41862;BME280;27537;57.134;-2.136;2023-06-10T07:57:36;101322.34;;;17.10;100.00
41862;BME280;27537;57.134;-2.136;2023-06-10T08:00:05;101330.66;;;17.04;100.00
41862;BME280;27537;57.134;-2.136;2023-06-10T08:02:32;101319.41;;;17.62;100.00
41862;BME280;27537;57.134;-2.136;2023-06-10T08:04:59;101320.00;;;17.98;100.00
41862;BME280;27537;57.134;-2.136;2023-06-10T08:07:26;101324.09;;;18.03;100.00
41862;BME280;27537;57.134;-2.136;2023-06-10T08:09:53;101324.34;;;18.29;100.00
41862;BME280;27537;57.134;-2.136;2023-06-10T08:12:19;101321.88;;;18.84;100.00
41862;BME280;27537;57.134;-2.136;2023-06-10T08:14:46;101327.06;;;18.13;100.00
41862;BME280;27537;57.134;-2.136;2023-06-10T08:17:14;101322.03;;;18.37;100.00
41862;BME280;27537;57.134;-2.136;2023-06-10T08:19:41;101326.31;;;18.40;100.00
41862;BME280;27537;57.134;-2.136;2023-06-10T08:22:07;101325.91;;;18.03;100.00
41862;BME280;27537;57.134;-2.136;2023-06-10T08:24:34;101327.09;;;18.56;100.00
41862;BME280;27537;57.134;-2.136;2023-06-10T08:27:01;101336.88;;;18.11;100.00
41862;BME280;27537;57.134;-2.136;2023-06-10T08:29:28;101335.88;;;17.68;100.00
41862;BME280;27537;57.134;-2.136;2023-06-10T08:31:55;101341.47;;;18.38;100.00
41862;BME280;27537;57.134;-2.136;2023-06-10T08:34:22;101333.88;;;18.60;100.00
41862;BME280;27537;57.134;-2.136;2023-06-10T08:36:49;101326.44;;;18.82;100.00
41862;BME280;27537;57.134;-2.136;2023-06-10T08:39:19;101324.59;;;18.68;100.00
41862;BME280;27537;57.134;-2.136;2023-06-10T08:42:00;101324.25;;;18.59;100.00
41862;BME280;27537;57.134;-2.136;2023-06-10T08:44:32;101333.84;;;19.18;100.00
41862;BME280;27537;57.134;-2.136;2023-06-10T08:47:00;101324.31;;;18.72;100.00
41862;BME280;27537;57.134;-2.136;2023-06-10T08:49:30;101322.44;;;18.60;100.00
41862;BME280;27537;57.134;-2.136;2023-06-10T08:52:02;101330.78;;;18.68;100.00
41862;BME280;27537;57.134;-2.136;2023-06-10T08:54:32;101327.25;;;18.39;100.00
41862;BME280;27537;57.134;-2.136;2023-06-10T08:57:04;101306.44;;;18.47;100.00
41862;BME280;27537;57.134;-2.136;2023-06-10T08:59:32;101326.34;;;19.25;100.00
41862;BME280;27537;57.134;-2.136;2023-06-10T09:02:00;101322.44;;;19.30;100.00
41862;BME280;27537;57.134;-2.136;2023-06-10T09:04:27;101328.38;;;19.07;100.00
41862;BME280;27537;57.134;-2.136;2023-06-10T09:06:55;101316.16;;;18.32;100.00
41862;BME280;27537;57.134;-2.136;2023-06-10T09:09:23;101319.00;;;19.01;100.00
41862;BME280;27537;57.134;-2.136;2023-06-10T09:11:52;101323.00;;;19.35;100.00
41862;BME280;27537;57.134;-2.136;2023-06-10T09:14:18;101301.03;;;18.92;100.00
41862;BME280;27537;57.134;-2.136;2023-06-10T09:16:45;101322.25;;;18.92;100.00
41862;BME280;27537;57.134;-2.136;2023-06-10T09:19:14;101323.69;;;18.54;100.00
41862;BME280;27537;57.134;-2.136;2023-06-10T09:21:41;101330.50;;;18.87;100.00
41862;BME280;27537;57.134;-2.136;2023-06-10T09:24:08;101321.84;;;18.98;100.00
41862;BME280;27537;57.134;-2.136;2023-06-10T09:26:35;101326.19;;;19.13;100.00
41862;BME280;27537;57.134;-2.136;2023-06-10T09:29:03;101322.94;;;19.90;100.00
41862;BME280;27537;57.134;-2.136;2023-06-10T09:31:34;101331.47;;;19.55;100.00
41862;BME280;27537;57.134;-2.136;2023-06-10T09:34:12;101319.84;;;19.43;100.00
41862;BME280;27537;57.134;-2.136;2023-06-10T09:36:40;101325.25;;;19.14;100.00
41862;BME280;27537;57.134;-2.136;2023-06-10T09:39:15;101322.72;;;19.26;100.00
41862;BME280;27537;57.134;-2.136;2023-06-10T09:41:43;101325.88;;;19.72;100.00
41862;BME280;27537;57.134;-2.136;2023-06-10T09:44:18;101320.25;;;19.37;100.00
41862;BME280;27537;57.134;-2.136;2023-06-10T09:46:46;101327.25;;;19.11;100.00
41862;BME280;27537;57.134;-2.136;2023-06-10T09:49:14;101328.03;;;18.99;100.00
41862;BME280;27537;57.134;-2.136;2023-06-10T09:51:54;101324.97;;;19.05;100.00
41862;BME280;27537;57.134;-2.136;2023-06-10T09:54:22;101316.84;;;18.93;100.00
41862;BME280;27537;57.134;-2.136;2023-06-10T09:56:51;101321.38;;;19.06;100.00
41862;BME280;27537;57.134;-2.136;2023-06-10T09:59:30;101324.25;;;18.88;100.00
41862;BME280;27537;57.134;-2.136;2023-06-10T10:02:01;101319.75;;;19.45;100.00
41862;BME280;27537;57.134;-2.136;2023-06-10T10:04:27;101323.69;;;19.25;100.00
41862;BME280;27537;57.134;-2.136;2023-06-10T10:06:55;101323.81;;;19.23;100.00
41862;BME280;27537;57.134;-2.136;2023-06-10T10:09:22;101324.31;;;19.01;100.00
41862;BME280;27537;57.134;-2.136;2023-06-10T10:11:49;101329.47;;;18.90;100.00
41862;BME280;27537;57.134;-2.136;2023-06-10T10:14:19;101332.75;;;18.79;100.00
41862;BME280;27537;57.134;-2.136;2023-06-10T10:16:48;101325.94;;;18.46;100.00
41862;BME280;27537;57.134;-2.136;2023-06-10T10:19:19;101329.09;;;19.23;100.00
41862;BME280;27537;57.134;-2.136;2023-06-10T10:21:54;101321.69;;;18.29;100.00
41862;BME280;27537;57.134;-2.136;2023-06-10T10:24:23;101328.88;;;18.42;100.00
41862;BME280;27537;57.134;-2.136;2023-06-10T10:26:54;101304.31;;;18.24;100.00
41862;BME280;27537;57.134;-2.136;2023-06-10T10:31:51;101334.00;;;19.02;100.00
41862;BME280;27537;57.134;-2.136;2023-06-10T10:34:30;101333.34;;;19.26;100.00
41862;BME280;27537;57.134;-2.136;2023-06-10T10:37:02;101330.00;;;19.09;100.00
41862;BME280;27537;57.134;-2.136;2023-06-10T10:39:29;101318.47;;;18.67;100.00
41862;BME280;27537;57.134;-2.136;2023-06-10T10:41:57;101332.31;;;18.87;100.00
41862;BME280;27537;57.134;-2.136;2023-06-10T10:44:25;101330.69;;;18.99;100.00
41862;BME280;27537;57.134;-2.136;2023-06-10T10:46:52;101326.31;;;18.54;100.00
41862;BME280;27537;57.134;-2.136;2023-06-10T10:49:22;101332.03;;;18.91;100.00
41862;BME280;27537;57.134;-2.136;2023-06-10T10:52:01;101335.50;;;18.77;100.00
41862;BME280;27537;57.134;-2.136;2023-06-10T10:54:33;101325.56;;;18.52;100.00
41862;BME280;27537;57.134;-2.136;2023-06-10T11:02:18;101325.47;;;18.97;100.00
41862;BME280;27537;57.134;-2.136;2023-06-10T11:04:46;101327.94;;;19.00;100.00
41862;BME280;27537;57.134;-2.136;2023-06-10T11:07:14;101330.94;;;18.79;100.00
41862;BME280;27537;57.134;-2.136;2023-06-10T11:10:09;101336.53;;;18.60;100.00
41862;BME280;27537;57.134;-2.136;2023-06-10T11:15:13;101327.09;;;18.42;100.00
41862;BME280;27537;57.134;-2.136;2023-06-10T11:18:15;101331.03;;;18.78;100.00
41862;BME280;27537;57.134;-2.136;2023-06-10T11:34:05;101315.81;;;18.82;100.00
41862;BME280;27537;57.134;-2.136;2023-06-10T11:36:34;101316.19;;;18.75;100.00
41862;BME280;27537;57.134;-2.136;2023-06-10T11:39:04;101315.97;;;19.07;100.00
41862;BME280;27537;57.134;-2.136;2023-06-10T11:41:33;101321.97;;;18.82;100.00
41862;BME280;27537;57.134;-2.136;2023-06-10T11:44:07;101315.06;;;19.48;100.00
41862;BME280;27537;57.134;-2.136;2023-06-10T11:46:34;101301.72;;;19.08;100.00
41862;BME280;27537;57.134;-2.136;2023-06-10T11:49:03;101315.03;;;19.35;100.00
41862;BME280;27537;57.134;-2.136;2023-06-10T11:51:33;101321.28;;;18.78;100.00
41862;BME280;27537;57.134;-2.136;2023-06-10T11:54:11;101320.88;;;19.13;100.00
41862;BME280;27537;57.134;-2.136;2023-06-10T11:56:41;101303.75;;;19.59;100.00
41862;BME280;27537;57.134;-2.136;2023-06-10T11:59:08;101322.78;;;19.39;100.00
41862;BME280;27537;57.134;-2.136;2023-06-10T12:01:43;101326.06;;;19.57;100.00
41862;BME280;27537;57.134;-2.136;2023-06-10T12:04:12;101325.13;;;19.70;100.00
41862;BME280;27537;57.134;-2.136;2023-06-10T12:06:41;101318.91;;;19.84;100.00
41862;BME280;27537;57.134;-2.136;2023-06-10T12:09:31;101331.28;;;20.11;100.00
41862;BME280;27537;57.134;-2.136;2023-06-10T12:12:01;101330.16;;;19.48;100.00
41862;BME280;27537;57.134;-2.136;2023-06-10T12:14:56;101325.28;;;19.00;100.00
41862;BME280;27537;57.134;-2.136;2023-06-10T12:19:58;101319.53;;;19.75;100.00
41862;BME280;27537;57.134;-2.136;2023-06-10T12:22:26;101334.66;;;19.87;100.00
41862;BME280;27537;57.134;-2.136;2023-06-10T12:25:00;101327.97;;;19.95;100.00
41862;BME280;27537;57.134;-2.136;2023-06-10T12:27:28;101329.00;;;19.79;100.00
41862;BME280;27537;57.134;-2.136;2023-06-10T12:29:57;101326.97;;;19.01;100.00
41862;BME280;27537;57.134;-2.136;2023-06-10T12:32:55;101332.28;;;19.43;100.00
41862;BME280;27537;57.134;-2.136;2023-06-10T12:35:24;101320.03;;;19.67;100.00
41862;BME280;27537;57.134;-2.136;2023-06-10T12:38:03;101331.69;;;19.65;100.00
41862;BME280;27537;57.134;-2.136;2023-06-10T12:40:35;101319.47;;;19.08;100.00
41862;BME280;27537;57.134;-2.136;2023-06-10T12:43:03;101318.19;;;18.86;100.00
41862;BME280;27537;57.134;-2.136;2023-06-10T12:45:31;101321.41;;;18.91;100.00
41862;BME280;27537;57.134;-2.136;2023-06-10T12:50:33;101325.50;;;19.51;100.00
41862;BME280;27537;57.134;-2.136;2023-06-10T12:53:00;101305.91;;;19.40;100.00
41862;BME280;27537;57.134;-2.136;2023-06-10T12:55:27;101324.16;;;19.59;100.00
41862;BME280;27537;57.134;-2.136;2023-06-10T12:57:55;101326.38;;;19.10;100.00
41862;BME280;27537;57.134;-2.136;2023-06-10T13:00:23;101312.69;;;18.60;100.00
41862;BME280;27537;57.134;-2.136;2023-06-10T13:02:52;101308.63;;;19.25;100.00
41862;BME280;27537;57.134;-2.136;2023-06-10T13:05:22;101314.19;;;18.93;100.00
41862;BME280;27537;57.134;-2.136;2023-06-10T13:07:49;101312.41;;;18.65;100.00
41862;BME280;27537;57.134;-2.136;2023-06-10T13:10:16;101308.44;;;18.44;100.00